createdAt,value
2022-09-28T00:00:41.867Z,80.20
2022-09-28T00:03:09.375Z,80.20
2022-09-28T00:05:36.027Z,80.30
2022-09-28T00:08:02.627Z,80.30
2022-09-28T00:10:29.218Z,80.40
2022-09-28T00:12:55.784Z,80.40
2022-09-28T00:15:24.565Z,80.30
2022-09-28T00:17:51.123Z,80.30
2022-09-28T00:20:19.293Z,80.30
2022-09-28T00:36:58.969Z,80.50
2022-09-28T03:50:48.213Z,81.30
2022-09-28T04:10:22.171Z,81.50
2022-09-28T04:13:15.440Z,81.60
2022-09-28T04:38:02.768Z,81.60
2022-09-28T04:40:45.157Z,81.60
2022-09-28T04:48:51.344Z,81.80
2022-09-28T05:53:24.216Z,81.90
2022-09-28T06:17:01.156Z,81.90
2022-09-28T06:38:26.760Z,82.10
2022-09-28T07:01:47.853Z,82.20
2022-09-28T07:18:29.749Z,82.50
2022-09-28T07:20:57.308Z,82.60
2022-09-28T07:23:26.165Z,82.60
2022-09-28T07:25:53.241Z,82.60
2022-09-28T07:28:21.012Z,82.70
2022-09-28T07:30:48.295Z,82.70
2022-09-28T07:33:15.999Z,82.70
2022-09-28T07:35:53.573Z,82.70
2022-09-28T07:38:20.414Z,82.80
2022-09-28T07:41:06.135Z,82.90
2022-09-28T07:43:32.737Z,83.00
2022-09-28T07:45:59.386Z,83.10
2022-09-28T07:48:26.139Z,83.30
2022-09-28T07:50:55.026Z,83.30
2022-09-28T07:53:23.379Z,83.40
2022-09-28T07:55:53.787Z,83.40
2022-09-28T07:58:20.816Z,83.50
2022-09-28T08:00:49.015Z,83.50
2022-09-28T08:03:17.551Z,83.50
2022-09-28T08:05:45.629Z,83.50
2022-09-28T08:08:12.531Z,84.40
2022-09-28T08:10:42.403Z,83.60
2022-09-28T08:13:11.121Z,83.70
2022-09-28T08:15:38.129Z,83.70
2022-09-28T08:18:05.667Z,83.70
2022-09-28T08:20:51.924Z,83.70
2022-09-28T08:23:19.860Z,83.70
2022-09-28T08:25:52.460Z,83.70
2022-09-28T08:28:19.260Z,83.70
2022-09-28T08:30:46.818Z,83.70
2022-09-28T08:33:14.430Z,83.60
2022-09-28T08:35:41.862Z,83.60
2022-09-28T08:38:09.199Z,83.60
2022-09-28T08:41:00.034Z,83.60
2022-09-28T08:43:49.334Z,83.40
2022-09-28T08:46:20.827Z,83.70
2022-09-28T08:49:25.906Z,83.50
2022-09-28T08:52:05.760Z,83.80
2022-09-28T08:54:51.600Z,83.90
2022-09-28T08:57:22.931Z,83.50
2022-09-28T08:59:59.657Z,82.90
2022-09-28T09:02:33.562Z,79.20
2022-09-28T09:05:06.283Z,76.20
2022-09-28T09:08:10.859Z,73.30
2022-09-28T09:10:43.126Z,72.00
2022-09-28T09:13:40.782Z,72.10
2022-09-28T09:16:22.437Z,72.60
2022-09-28T09:19:12.635Z,70.90
2022-09-28T09:21:41.803Z,70.50
2022-09-28T09:24:27.224Z,71.20
2022-09-28T09:27:06.536Z,70.40
2022-09-28T09:30:04.152Z,69.50
2022-09-28T09:32:55.883Z,67.70
2022-09-28T09:35:40.576Z,65.70
2022-09-28T09:38:21.991Z,62.60
2022-09-28T09:41:03.745Z,61.80
2022-09-28T09:43:38.584Z,59.80
2022-09-28T09:46:28.514Z,58.80
2022-09-28T09:49:00.914Z,58.70
2022-09-28T09:51:38.272Z,60.10
2022-09-28T09:54:24.410Z,61.60
2022-09-28T09:57:01.511Z,63.10
2022-09-28T09:59:33.810Z,64.30
2022-09-28T10:02:25.170Z,65.30
2022-09-28T10:04:59.972Z,65.40
2022-09-28T10:07:42.572Z,65.90
2022-09-28T10:10:15.964Z,65.90
2022-09-28T10:12:42.525Z,65.20
2022-09-28T10:15:14.956Z,65.00
2022-09-28T10:17:41.916Z,64.40
2022-09-28T10:20:13.220Z,64.80
2022-09-28T10:22:40.660Z,65.00
2022-09-28T10:25:09.752Z,65.00
2022-09-28T10:27:41.032Z,64.80
2022-09-28T10:30:08.413Z,65.00
2022-09-28T10:32:46.584Z,64.80
2022-09-28T10:35:19.159Z,65.70
2022-09-28T10:38:06.740Z,66.40
2022-09-28T10:40:39.532Z,67.00
2022-09-28T10:43:17.507Z,66.70
2022-09-28T10:45:44.700Z,66.60
2022-09-28T10:48:19.035Z,66.30
2022-09-28T10:50:59.266Z,66.00
2022-09-28T10:53:25.892Z,66.00
2022-09-28T10:55:59.224Z,66.30
2022-09-28T10:58:29.028Z,66.40
2022-09-28T11:01:02.242Z,66.30
2022-09-28T11:03:30.308Z,66.00
2022-09-28T11:06:02.942Z,65.50
2022-09-28T11:08:37.409Z,65.20
2022-09-28T11:11:12.836Z,65.10
2022-09-28T11:13:45.785Z,65.50
2022-09-28T11:16:22.128Z,66.10
2022-09-28T11:18:49.115Z,66.10
2022-09-28T11:21:28.699Z,65.60
2022-09-28T11:24:05.689Z,66.00
2022-09-28T11:26:40.743Z,65.70
2022-09-28T11:29:19.562Z,65.00
2022-09-28T11:31:46.947Z,65.80
2022-09-28T11:34:36.239Z,64.70
2022-09-28T11:37:27.538Z,64.60
2022-09-28T11:39:59.418Z,64.30
2022-09-28T11:42:58.514Z,64.60
2022-09-28T11:45:40.093Z,64.90
2022-09-28T11:48:13.295Z,65.10
2022-09-28T11:50:50.054Z,65.60
2022-09-28T11:53:21.932Z,66.00
2022-09-28T11:55:51.460Z,66.20
2022-09-28T11:58:35.020Z,66.00
2022-09-28T12:01:09.007Z,66.10
2022-09-28T12:04:04.881Z,66.20
2022-09-28T12:06:49.727Z,66.10
2022-09-28T12:09:28.532Z,66.60
2022-09-28T12:12:02.344Z,66.70
2022-09-28T12:14:33.404Z,66.50
2022-09-28T12:17:22.585Z,66.70
2022-09-28T12:19:57.992Z,67.50
2022-09-28T12:22:37.756Z,65.30
2022-09-28T12:25:09.282Z,64.90
2022-09-28T12:27:48.201Z,64.80
2022-09-28T12:30:21.016Z,64.80
2022-09-28T12:33:03.945Z,65.50
2022-09-28T12:35:52.299Z,66.00
2022-09-28T12:38:37.271Z,66.70
2022-09-28T12:41:05.054Z,67.10
2022-09-28T12:44:03.871Z,67.80
2022-09-28T12:46:38.450Z,68.30
2022-09-28T12:52:32.934Z,69.20
2022-09-28T12:54:59.537Z,69.60
2022-09-28T12:57:29.089Z,69.90
2022-09-28T13:00:13.141Z,70.30
2022-09-28T13:03:07.706Z,70.70
2022-09-28T13:06:09.905Z,71.00
2022-09-28T13:09:11.154Z,71.30
2022-09-28T13:11:53.598Z,71.40
2022-09-28T13:14:35.983Z,71.70
2022-09-28T13:17:19.136Z,71.70
2022-09-28T13:19:51.843Z,72.50
2022-09-28T13:22:44.381Z,73.30
2022-09-28T13:25:17.718Z,74.00
2022-09-28T13:27:52.665Z,74.10
2022-09-28T13:30:19.619Z,73.90
2022-09-28T13:32:47.793Z,73.50
2022-09-28T13:35:19.300Z,72.90
2022-09-28T13:37:46.535Z,72.90
2022-09-28T13:40:13.863Z,72.80
2022-09-28T13:42:51.065Z,72.60
2022-09-28T13:45:20.523Z,72.70
2022-09-28T13:48:23.457Z,72.40
2022-09-28T13:51:17.908Z,71.40
2022-09-28T13:54:07.764Z,70.90
2022-09-28T13:56:52.587Z,71.00
2022-09-28T13:59:27.182Z,71.20
2022-09-28T14:02:01.706Z,71.50
2022-09-28T14:04:58.593Z,70.10
2022-09-28T14:07:34.319Z,69.80
2022-09-28T14:10:21.753Z,69.40
2022-09-28T14:12:51.267Z,69.20
2022-09-28T14:15:40.612Z,69.30
2022-09-28T14:18:17.161Z,69.10
2022-09-28T14:21:11.119Z,69.20
2022-09-28T14:24:01.798Z,69.20
2022-09-28T14:26:47.495Z,69.30
2022-09-28T14:29:36.144Z,69.30
2022-09-28T14:32:08.923Z,69.50
2022-09-28T14:34:41.136Z,69.80
2022-09-28T14:38:00.128Z,70.00
2022-09-28T14:41:10.726Z,69.80
2022-09-28T14:44:02.428Z,69.50
2022-09-28T14:46:40.321Z,69.80
2022-09-28T14:49:19.578Z,69.80
2022-09-28T14:51:58.243Z,70.10
2022-09-28T14:54:45.853Z,70.50
2022-09-28T14:57:28.485Z,70.90
2022-09-28T14:59:55.906Z,71.30
2022-09-28T15:02:31.654Z,71.40
2022-09-28T15:05:17.970Z,71.60
2022-09-28T15:07:49.486Z,71.60
2022-09-28T15:10:31.189Z,71.90
2022-09-28T15:13:01.283Z,72.10
2022-09-28T15:15:36.161Z,72.40
2022-09-28T15:18:18.394Z,72.70
2022-09-28T15:20:48.534Z,72.90
2022-09-28T15:23:36.746Z,73.00
2022-09-28T15:26:09.076Z,73.30
2022-09-28T15:28:36.870Z,73.30
2022-09-28T15:31:05.483Z,73.50
2022-09-28T15:33:52.612Z,73.70
2022-09-28T15:36:26.169Z,73.70
2022-09-28T15:39:05.988Z,73.70
2022-09-28T15:41:33.907Z,73.80
2022-09-28T15:44:09.244Z,73.90
2022-09-28T15:46:38.283Z,74.00
2022-09-28T15:49:05.817Z,74.10
2022-09-28T15:51:47.287Z,74.20
2022-09-28T15:54:24.737Z,74.40
2022-09-28T15:56:52.776Z,74.50
2022-09-28T15:59:27.391Z,74.60
2022-09-28T16:02:15.231Z,74.60
2022-09-28T16:04:50.462Z,74.50
2022-09-28T16:07:38.430Z,74.50
2022-09-28T16:10:14.163Z,74.50
2022-09-28T16:12:48.508Z,74.50
2022-09-28T16:15:25.316Z,74.50
2022-09-28T16:18:02.613Z,74.70
2022-09-28T16:20:37.285Z,74.90
2022-09-28T16:23:16.086Z,74.90
2022-09-28T16:25:56.396Z,75.00
2022-09-28T16:28:38.254Z,74.90
2022-09-28T16:31:22.554Z,74.90
2022-09-28T16:33:58.928Z,74.90
2022-09-28T16:36:29.623Z,75.10
2022-09-28T16:38:56.628Z,75.20
2022-09-28T16:41:26.289Z,75.30
2022-09-28T16:44:02.528Z,75.40
2022-09-28T16:46:37.259Z,76.50
2022-09-28T16:49:05.906Z,75.80
2022-09-28T16:51:33.511Z,75.80
2022-09-28T16:54:36.162Z,76.70
2022-09-28T16:57:04.602Z,76.00
2022-09-28T16:59:31.635Z,76.00
2022-09-28T17:01:58.589Z,76.10
2022-09-28T17:04:26.228Z,76.20
2022-09-28T17:06:55.433Z,76.20
2022-09-28T17:09:22.945Z,76.30
2022-09-28T17:11:55.946Z,76.40
2022-09-28T17:14:23.760Z,76.50
2022-09-28T17:17:13.727Z,76.40
2022-09-28T17:19:40.596Z,76.50
2022-09-28T17:22:09.556Z,76.50
2022-09-28T17:24:36.600Z,76.60
2022-09-28T17:27:03.778Z,76.60
2022-09-28T17:29:30.776Z,76.70
2022-09-28T17:31:57.339Z,76.80
2022-09-28T17:34:23.966Z,76.80
2022-09-28T17:36:51.535Z,76.90
2022-09-28T17:39:19.384Z,76.90
2022-09-28T17:41:46.452Z,76.90
2022-09-28T17:44:15.847Z,76.80
2022-09-28T17:46:49.388Z,76.80
2022-09-28T17:49:16.761Z,76.70
2022-09-28T17:51:43.466Z,76.70
2022-09-28T17:54:10.262Z,76.70
2022-09-28T17:56:37.295Z,76.70
2022-09-28T17:59:06.575Z,76.70
2022-09-28T18:01:34.792Z,76.60
2022-09-28T18:04:04.822Z,76.60
2022-09-28T18:06:40.975Z,76.70
2022-09-28T18:09:08.946Z,76.80
2022-09-28T18:11:41.644Z,76.80
2022-09-28T18:14:11.210Z,76.80
2022-09-28T18:16:38.100Z,76.90
2022-09-28T18:19:04.751Z,77.00
2022-09-28T18:21:32.739Z,77.00
2022-09-28T18:23:59.339Z,77.00
2022-09-28T18:26:25.951Z,77.00
2022-09-28T18:28:55.659Z,76.90
2022-09-28T18:31:22.657Z,77.80
2022-09-28T18:36:35.736Z,77.10
2022-09-28T18:39:02.832Z,77.20
2022-09-28T18:41:29.426Z,77.40
2022-09-28T18:44:00.581Z,77.40
2022-09-28T18:46:36.272Z,78.30
2022-09-28T18:49:04.474Z,77.50
2022-09-28T18:51:31.184Z,77.60
2022-09-28T18:53:57.798Z,77.50
2022-09-28T18:56:24.645Z,77.50
2022-09-28T18:58:52.464Z,77.50
2022-09-28T19:01:36.289Z,77.50
2022-09-28T19:04:05.652Z,77.60
2022-09-28T19:06:34.203Z,77.60
2022-09-28T19:09:01.444Z,77.60
2022-09-28T19:11:28.730Z,77.70
2022-09-28T19:13:55.966Z,77.70
2022-09-28T19:16:28.671Z,77.70
2022-09-28T19:18:59.823Z,77.80
2022-09-28T19:21:27.227Z,77.80
2022-09-28T19:23:55.248Z,77.80
2022-09-28T19:26:24.618Z,77.80
2022-09-28T19:28:51.247Z,77.80
2022-09-28T19:31:18.474Z,77.90
2022-09-28T19:33:46.207Z,77.90
2022-09-28T19:36:17.129Z,77.90
2022-09-28T19:38:44.385Z,78.00
2022-09-28T19:41:39.438Z,78.10
2022-09-28T19:44:31.632Z,78.10
2022-09-28T19:47:00.637Z,78.00
2022-09-28T19:49:32.853Z,77.90
2022-09-28T19:52:12.793Z,77.90
2022-09-28T19:54:57.395Z,77.80
2022-09-28T19:57:27.579Z,77.80
2022-09-28T19:59:59.326Z,77.90
2022-09-28T20:02:28.681Z,77.90
2022-09-28T20:04:55.369Z,78.00
2022-09-28T20:07:21.937Z,78.00
2022-09-28T20:09:48.551Z,78.00
2022-09-28T20:12:15.108Z,78.10
2022-09-28T20:14:41.706Z,78.20
2022-09-28T20:17:08.979Z,78.20
2022-09-28T20:19:35.939Z,78.00
2022-09-28T20:22:02.768Z,78.30
2022-09-28T20:24:30.295Z,77.90
2022-09-28T20:26:57.714Z,77.80
2022-09-28T20:29:24.824Z,77.80
2022-09-28T20:31:51.853Z,77.80
2022-09-28T20:34:18.616Z,77.80
2022-09-28T20:36:45.287Z,77.70
2022-09-28T20:39:12.083Z,77.70
2022-09-28T20:41:38.820Z,77.80
2022-09-28T20:44:06.743Z,77.80
2022-09-28T20:46:36.988Z,77.80
2022-09-28T20:49:05.026Z,77.80
2022-09-28T20:51:31.987Z,77.90
2022-09-28T20:53:59.507Z,77.80
2022-09-28T20:56:28.664Z,77.90
2022-09-28T20:58:55.679Z,77.90
2022-09-28T21:01:25.157Z,77.80
2022-09-28T21:03:57.319Z,77.80
2022-09-28T21:06:26.724Z,77.70
2022-09-28T21:08:53.596Z,77.80
2022-09-28T21:11:22.878Z,77.80
2022-09-28T21:13:53.389Z,77.80
2022-09-28T21:16:20.617Z,77.90
2022-09-28T21:18:47.879Z,77.80
2022-09-28T21:21:16.695Z,77.80
2022-09-28T21:23:44.825Z,77.80
2022-09-28T21:26:24.441Z,77.80
2022-09-28T21:28:55.445Z,77.90
2022-09-28T21:31:27.735Z,77.80
2022-09-28T21:33:55.300Z,77.90
2022-09-28T21:36:21.903Z,77.90
2022-09-28T21:38:49.190Z,77.80
2022-09-28T21:41:16.249Z,77.90
2022-09-28T21:43:42.823Z,77.90
2022-09-28T21:46:10.052Z,78.00
2022-09-28T21:48:36.883Z,78.00
2022-09-28T21:51:09.096Z,78.10
2022-09-28T21:53:37.518Z,78.10
2022-09-28T21:56:06.783Z,78.10
2022-09-28T21:58:35.287Z,78.00
2022-09-28T22:01:15.473Z,78.00
2022-09-28T22:03:47.285Z,78.00
2022-09-28T22:06:15.200Z,78.10
2022-09-28T22:08:42.238Z,78.00
2022-09-28T22:11:12.201Z,78.00
2022-09-28T22:13:47.422Z,78.00
2022-09-28T22:16:16.832Z,78.10
2022-09-28T22:18:44.107Z,78.00
2022-09-28T22:21:17.696Z,78.10
2022-09-28T22:23:44.719Z,78.00
2022-09-28T22:26:23.760Z,77.90
2022-09-28T22:28:54.506Z,77.90
2022-09-28T22:31:25.960Z,77.90
2022-09-28T22:33:53.195Z,78.00
2022-09-28T22:36:20.127Z,78.00
2022-09-28T22:38:47.689Z,77.90
2022-09-28T22:41:15.970Z,78.00
2022-09-28T22:43:43.308Z,78.10
2022-09-28T22:46:16.414Z,78.10
2022-09-28T22:48:47.823Z,78.20
2022-09-28T22:51:15.600Z,78.20
2022-09-28T22:53:42.686Z,78.10
2022-09-28T22:56:12.586Z,78.10
2022-09-28T22:58:42.812Z,78.20
2022-09-28T23:01:29.602Z,78.20
2022-09-28T23:03:57.281Z,78.30
2022-09-28T23:06:26.145Z,78.20
2022-09-28T23:08:53.388Z,78.20
2022-09-28T23:11:20.508Z,78.20
2022-09-28T23:13:51.511Z,78.30
2022-09-28T23:16:19.431Z,78.20
2022-09-28T23:18:46.185Z,78.30
2022-09-28T23:21:15.315Z,78.30
2022-09-28T23:23:43.067Z,78.30
2022-09-28T23:26:15.395Z,78.30
2022-09-28T23:28:42.767Z,78.30
2022-09-28T23:31:21.608Z,78.30
2022-09-28T23:33:48.262Z,78.30
2022-09-28T23:36:15.853Z,78.20
2022-09-28T23:38:43.029Z,78.30
2022-09-28T23:41:10.335Z,78.30
2022-09-28T23:43:36.965Z,78.30
2022-09-28T23:46:04.665Z,78.40
2022-09-28T23:48:31.458Z,78.30
2022-09-28T23:50:58.386Z,78.30
2022-09-28T23:53:25.084Z,78.30
2022-09-28T23:55:51.837Z,78.30
2022-09-28T23:58:18.556Z,78.40
